sensor_id;sensor_type;location;lat;lon;timestamp;pressure;altitude;pressure_sealevel;temperature;humidity
39209;BME280;24929;51.982;4.664;2023-01-29T00:00:30;78779.84;;;-143.36;nan
39209;BME280;24929;51.982;4.664;2023-01-29T00:02:56;78783.88;;;-143.36;nan
39209;BME280;24929;51.982;4.664;2023-01-29T00:05:21;78761.78;;;-143.36;nan
39209;BME280;24929;51.982;4.664;2023-01-29T00:07:46;78747.72;;;-143.36;nan
39209;BME280;24929;51.982;4.664;2023-01-29T00:10:12;78769.81;;;-143.36;nan
39209;BME280;24929;51.982;4.664;2023-01-29T00:12:38;78771.84;;;-143.36;nan
39209;BME280;24929;51.982;4.664;2023-01-29T00:15:04;78749.75;;;-143.36;nan
39209;BME280;24929;51.982;4.664;2023-01-29T00:17:29;78741.72;;;-143.36;nan
39209;BME280;24929;51.982;4.664;2023-01-29T00:19:55;78755.75;;;-143.36;nan
39209;BME280;24929;51.982;4.664;2023-01-29T00:22:20;78755.75;;;-143.36;nan
39209;BME280;24929;51.982;4.664;2023-01-29T00:24:45;78753.75;;;-143.36;nan
39209;BME280;24929;51.982;4.664;2023-01-29T00:27:10;78749.75;;;-143.36;nan
39209;BME280;24929;51.982;4.664;2023-01-29T00:29:36;78781.88;;;-143.36;nan
39209;BME280;24929;51.982;4.664;2023-01-29T00:32:01;78777.84;;;-143.36;nan
39209;BME280;24929;51.982;4.664;2023-01-29T00:34:26;78743.72;;;-143.36;nan
39209;BME280;24929;51.982;4.664;2023-01-29T00:36:52;78787.88;;;-143.36;nan
39209;BME280;24929;51.982;4.664;2023-01-29T00:39:28;78779.84;;;-143.36;nan
39209;BME280;24929;51.982;4.664;2023-01-29T00:42:06;78707.56;;;-143.36;nan
39209;BME280;24929;51.982;4.664;2023-01-29T00:44:50;78723.63;;;-143.36;nan
39209;BME280;24929;51.982;4.664;2023-01-29T00:47:24;78721.63;;;-143.36;nan
39209;BME280;24929;51.982;4.664;2023-01-29T00:49:58;78689.50;;;-143.36;nan
39209;BME280;24929;51.982;4.664;2023-01-29T00:52:24;78703.56;;;-143.36;nan
39209;BME280;24929;51.982;4.664;2023-01-29T00:54:54;78651.34;;;-143.36;nan
39209;BME280;24929;51.982;4.664;2023-01-29T00:57:20;78719.63;;;-143.36;nan
39209;BME280;24929;51.982;4.664;2023-01-29T00:59:45;78701.56;;;-143.36;nan
39209;BME280;24929;51.982;4.664;2023-01-29T01:02:11;78715.59;;;-143.36;nan
39209;BME280;24929;51.982;4.664;2023-01-29T01:04:55;78699.53;;;-143.36;nan
39209;BME280;24929;51.982;4.664;2023-01-29T01:07:21;78703.56;;;-143.36;nan
39209;BME280;24929;51.982;4.664;2023-01-29T01:09:46;78735.69;;;-143.36;nan
39209;BME280;24929;51.982;4.664;2023-01-29T01:12:30;78671.44;;;-143.36;nan
39209;BME280;24929;51.982;4.664;2023-01-29T01:14:56;78721.63;;;-143.36;nan
39209;BME280;24929;51.982;4.664;2023-01-29T01:17:21;78721.63;;;-143.36;nan
39209;BME280;24929;51.982;4.664;2023-01-29T01:19:47;78727.66;;;-143.36;nan
39209;BME280;24929;51.982;4.664;2023-01-29T01:22:13;78773.84;;;-143.36;nan
39209;BME280;24929;51.982;4.664;2023-01-29T01:24:38;78717.63;;;-143.36;nan
39209;BME280;24929;51.982;4.664;2023-01-29T01:27:04;78773.84;;;-143.36;nan
39209;BME280;24929;51.982;4.664;2023-01-29T01:29:30;78757.78;;;-143.36;nan
39209;BME280;24929;51.982;4.664;2023-01-29T01:31:55;78753.75;;;-143.36;nan
39209;BME280;24929;51.982;4.664;2023-01-29T01:34:21;78743.72;;;-143.36;nan
39209;BME280;24929;51.982;4.664;2023-01-29T01:36:47;78737.69;;;-143.36;nan
39209;BME280;24929;51.982;4.664;2023-01-29T01:39:13;78761.78;;;-143.36;nan
39209;BME280;24929;51.982;4.664;2023-01-29T01:41:38;78725.66;;;-143.36;nan
39209;BME280;24929;51.982;4.664;2023-01-29T01:44:04;78801.94;;;-143.36;nan
39209;BME280;24929;51.982;4.664;2023-01-29T01:46:32;78729.66;;;-143.36;nan
39209;BME280;24929;51.982;4.664;2023-01-29T01:49:11;78707.56;;;-143.36;nan
39209;BME280;24929;51.982;4.664;2023-01-29T01:51:42;78695.53;;;-143.36;nan
39209;BME280;24929;51.982;4.664;2023-01-29T01:54:17;78717.63;;;-143.36;nan
39209;BME280;24929;51.982;4.664;2023-01-29T01:56:50;78681.47;;;-143.36;nan
39209;BME280;24929;51.982;4.664;2023-01-29T01:59:18;78705.56;;;-143.36;nan
39209;BME280;24929;51.982;4.664;2023-01-29T02:01:46;78641.31;;;-143.36;nan
39209;BME280;24929;51.982;4.664;2023-01-29T02:04:18;78681.47;;;-143.36;nan
39209;BME280;24929;51.982;4.664;2023-01-29T02:07:05;78729.66;;;-143.36;nan
39209;BME280;24929;51.982;4.664;2023-01-29T02:10:11;78659.38;;;-143.36;nan
39209;BME280;24929;51.982;4.664;2023-01-29T02:12:39;78683.47;;;-143.36;nan
39209;BME280;24929;51.982;4.664;2023-01-29T02:15:05;78685.50;;;-143.36;nan
39209;BME280;24929;51.982;4.664;2023-01-29T02:17:31;78669.44;;;-143.36;nan
39209;BME280;24929;51.982;4.664;2023-01-29T02:33:35;78677.47;;;-143.36;nan
39209;BME280;24929;51.982;4.664;2023-01-29T02:36:26;78695.53;;;-143.36;nan
39209;BME280;24929;51.982;4.664;2023-01-29T02:39:09;78589.13;;;-143.36;nan
39209;BME280;24929;51.982;4.664;2023-01-29T02:41:45;78645.34;;;-143.36;nan
39209;BME280;24929;51.982;4.664;2023-01-29T02:49:49;78621.25;;;-143.36;nan
39209;BME280;24929;51.982;4.664;2023-01-29T02:55:11;78643.31;;;-143.36;nan
39209;BME280;24929;51.982;4.664;2023-01-29T02:57:42;78637.31;;;-143.36;nan
39209;BME280;24929;51.982;4.664;2023-01-29T03:02:43;78625.25;;;-143.36;nan
39209;BME280;24929;51.982;4.664;2023-01-29T03:05:14;78639.31;;;-143.36;nan
39209;BME280;24929;51.982;4.664;2023-01-29T03:07:51;78599.16;;;-143.36;nan
39209;BME280;24929;51.982;4.664;2023-01-29T03:10:21;78599.16;;;-143.36;nan
39209;BME280;24929;51.982;4.664;2023-01-29T03:12:55;78609.19;;;-143.36;nan
39209;BME280;24929;51.982;4.664;2023-01-29T03:15:40;78609.19;;;-143.36;nan
39209;BME280;24929;51.982;4.664;2023-01-29T03:18:11;78583.09;;;-143.36;nan
39209;BME280;24929;51.982;4.664;2023-01-29T03:20:45;78631.28;;;-143.36;nan
39209;BME280;24929;51.982;4.664;2023-01-29T03:23:17;78641.31;;;-143.36;nan
39209;BME280;24929;51.982;4.664;2023-01-29T03:25:53;78609.19;;;-143.36;nan
39209;BME280;24929;51.982;4.664;2023-01-29T03:28:42;78631.28;;;-143.36;nan
39209;BME280;24929;51.982;4.664;2023-01-29T03:31:28;78645.34;;;-143.36;nan
39209;BME280;24929;51.982;4.664;2023-01-29T03:34:16;78625.25;;;-143.36;nan
39209;BME280;24929;51.982;4.664;2023-01-29T03:36:52;78669.44;;;-143.36;nan
39209;BME280;24929;51.982;4.664;2023-01-29T03:39:20;78651.34;;;-143.36;nan
39209;BME280;24929;51.982;4.664;2023-01-29T03:52:48;78731.66;;;-143.36;nan
39209;BME280;24929;51.982;4.664;2023-01-29T03:55:23;78687.50;;;-143.36;nan
39209;BME280;24929;51.982;4.664;2023-01-29T03:57:59;78695.53;;;-143.36;nan
39209;BME280;24929;51.982;4.664;2023-01-29T04:00:56;78637.31;;;-143.36;nan
39209;BME280;24929;51.982;4.664;2023-01-29T04:04:10;78683.47;;;-143.36;nan
39209;BME280;24929;51.982;4.664;2023-01-29T04:06:12;78665.41;;;-143.36;nan
39209;BME280;24929;51.982;4.664;2023-01-29T04:08:45;78667.41;;;-143.36;nan
39209;BME280;24929;51.982;4.664;2023-01-29T04:11:15;78661.41;;;-143.36;nan
39209;BME280;24929;51.982;4.664;2023-01-29T04:13:42;78713.59;;;-143.36;nan
39209;BME280;24929;51.982;4.664;2023-01-29T04:16:12;78653.38;;;-143.36;nan
39209;BME280;24929;51.982;4.664;2023-01-29T04:18:43;78653.38;;;-143.36;nan
39209;BME280;24929;51.982;4.664;2023-01-29T04:21:09;78683.47;;;-143.36;nan
39209;BME280;24929;51.982;4.664;2023-01-29T04:23:34;78705.56;;;-143.36;nan
39209;BME280;24929;51.982;4.664;2023-01-29T04:26:30;78641.31;;;-143.36;nan
39209;BME280;24929;51.982;4.664;2023-01-29T04:29:35;78641.31;;;-143.36;nan
39209;BME280;24929;51.982;4.664;2023-01-29T04:32:44;78637.31;;;-143.36;nan
39209;BME280;24929;51.982;4.664;2023-01-29T04:40:19;78669.44;;;-143.36;nan
39209;BME280;24929;51.982;4.664;2023-01-29T04:47:59;78583.09;;;-143.36;nan
39209;BME280;24929;51.982;4.664;2023-01-29T04:50:37;78593.13;;;-143.36;nan
39209;BME280;24929;51.982;4.664;2023-01-29T04:53:24;78603.19;;;-143.36;nan
39209;BME280;24929;51.982;4.664;2023-01-29T04:56:09;78629.28;;;-143.36;nan
39209;BME280;24929;51.982;4.664;2023-01-29T04:59:00;78593.13;;;-143.36;nan
39209;BME280;24929;51.982;4.664;2023-01-29T05:01:29;78669.44;;;-143.36;nan
39209;BME280;24929;51.982;4.664;2023-01-29T05:03:59;78687.50;;;-143.36;nan
39209;BME280;24929;51.982;4.664;2023-01-29T05:06:28;78673.44;;;-143.36;nan
39209;BME280;24929;51.982;4.664;2023-01-29T05:08:56;78677.47;;;-143.36;nan
39209;BME280;24929;51.982;4.664;2023-01-29T05:11:23;78681.47;;;-143.36;nan
39209;BME280;24929;51.982;4.664;2023-01-29T05:13:49;78689.50;;;-143.36;nan
39209;BME280;24929;51.982;4.664;2023-01-29T05:16:22;78667.41;;;-143.36;nan
39209;BME280;24929;51.982;4.664;2023-01-29T05:18:50;78679.47;;;-143.36;nan
39209;BME280;24929;51.982;4.664;2023-01-29T05:21:16;78729.66;;;-143.36;nan
39209;BME280;24929;51.982;4.664;2023-01-29T05:23:42;78777.84;;;-143.36;nan
39209;BME280;24929;51.982;4.664;2023-01-29T05:26:21;78701.56;;;-143.36;nan
39209;BME280;24929;51.982;4.664;2023-01-29T05:29:06;78643.31;;;-143.36;nan
39209;BME280;24929;51.982;4.664;2023-01-29T05:31:31;78637.31;;;-143.36;nan
39209;BME280;24929;51.982;4.664;2023-01-29T05:33:56;78707.56;;;-143.36;nan
39209;BME280;24929;51.982;4.664;2023-01-29T05:36:22;78683.47;;;-143.36;nan
39209;BME280;24929;51.982;4.664;2023-01-29T05:38:49;78689.50;;;-143.36;nan
39209;BME280;24929;51.982;4.664;2023-01-29T05:41:14;78701.56;;;-143.36;nan
39209;BME280;24929;51.982;4.664;2023-01-29T05:43:41;78669.44;;;-143.36;nan
39209;BME280;24929;51.982;4.664;2023-01-29T05:46:06;78667.41;;;-143.36;nan
39209;BME280;24929;51.982;4.664;2023-01-29T05:48:32;78649.34;;;-143.36;nan
39209;BME280;24929;51.982;4.664;2023-01-29T05:51:01;78601.16;;;-143.36;nan
39209;BME280;24929;51.982;4.664;2023-01-29T05:53:28;78625.25;;;-143.36;nan
39209;BME280;24929;51.982;4.664;2023-01-29T05:55:53;78645.34;;;-143.36;nan
39209;BME280;24929;51.982;4.664;2023-01-29T05:58:21;78661.41;;;-143.36;nan
39209;BME280;24929;51.982;4.664;2023-01-29T06:00:47;78679.47;;;-143.36;nan
39209;BME280;24929;51.982;4.664;2023-01-29T06:03:12;78659.38;;;-143.36;nan
39209;BME280;24929;51.982;4.664;2023-01-29T06:05:38;78641.31;;;-143.36;nan
39209;BME280;24929;51.982;4.664;2023-01-29T06:08:04;78611.22;;;-143.36;nan
39209;BME280;24929;51.982;4.664;2023-01-29T06:10:29;78659.38;;;-143.36;nan
39209;BME280;24929;51.982;4.664;2023-01-29T06:12:54;78651.34;;;-143.36;nan
39209;BME280;24929;51.982;4.664;2023-01-29T06:15:20;78661.41;;;-143.36;nan
39209;BME280;24929;51.982;4.664;2023-01-29T06:17:45;78657.38;;;-143.36;nan
39209;BME280;24929;51.982;4.664;2023-01-29T06:20:11;78621.25;;;-143.36;nan
39209;BME280;24929;51.982;4.664;2023-01-29T06:22:36;78663.41;;;-143.36;nan
39209;BME280;24929;51.982;4.664;2023-01-29T06:25:02;78659.38;;;-143.36;nan
39209;BME280;24929;51.982;4.664;2023-01-29T06:27:27;78663.41;;;-143.36;nan
39209;BME280;24929;51.982;4.664;2023-01-29T06:29:53;78655.38;;;-143.36;nan
39209;BME280;24929;51.982;4.664;2023-01-29T06:32:18;78667.41;;;-143.36;nan
39209;BME280;24929;51.982;4.664;2023-01-29T06:34:43;78689.50;;;-143.36;nan
39209;BME280;24929;51.982;4.664;2023-01-29T06:37:09;78699.53;;;-143.36;nan
39209;BME280;24929;51.982;4.664;2023-01-29T06:39:34;78645.34;;;-143.36;nan
39209;BME280;24929;51.982;4.664;2023-01-29T06:41:59;78633.28;;;-143.36;nan
39209;BME280;24929;51.982;4.664;2023-01-29T06:44:25;78623.25;;;-143.36;nan
39209;BME280;24929;51.982;4.664;2023-01-29T06:46:50;78643.31;;;-143.36;nan
39209;BME280;24929;51.982;4.664;2023-01-29T06:49:15;78631.28;;;-143.36;nan
39209;BME280;24929;51.982;4.664;2023-01-29T06:51:41;78663.41;;;-143.36;nan
39209;BME280;24929;51.982;4.664;2023-01-29T06:54:07;78629.28;;;-143.36;nan
39209;BME280;24929;51.982;4.664;2023-01-29T06:56:33;78647.34;;;-143.36;nan
39209;BME280;24929;51.982;4.664;2023-01-29T06:58:58;78599.16;;;-143.36;nan
39209;BME280;24929;51.982;4.664;2023-01-29T07:01:24;78649.34;;;-143.36;nan
39209;BME280;24929;51.982;4.664;2023-01-29T07:03:49;78651.34;;;-143.36;nan
39209;BME280;24929;51.982;4.664;2023-01-29T07:06:15;78621.25;;;-143.36;nan
39209;BME280;24929;51.982;4.664;2023-01-29T07:08:41;78617.22;;;-143.36;nan
39209;BME280;24929;51.982;4.664;2023-01-29T07:11:07;78615.22;;;-143.36;nan
39209;BME280;24929;51.982;4.664;2023-01-29T07:13:32;78655.38;;;-143.36;nan
39209;BME280;24929;51.982;4.664;2023-01-29T07:15:59;78587.13;;;-143.36;nan
39209;BME280;24929;51.982;4.664;2023-01-29T07:18:25;78627.25;;;-143.36;nan
39209;BME280;24929;51.982;4.664;2023-01-29T07:20:51;78649.34;;;-143.36;nan
39209;BME280;24929;51.982;4.664;2023-01-29T07:23:16;78681.47;;;-143.36;nan
39209;BME280;24929;51.982;4.664;2023-01-29T07:25:42;78639.31;;;-143.36;nan
39209;BME280;24929;51.982;4.664;2023-01-29T07:28:08;78639.31;;;-143.36;nan
39209;BME280;24929;51.982;4.664;2023-01-29T07:30:34;78649.34;;;-143.36;nan
39209;BME280;24929;51.982;4.664;2023-01-29T07:33:07;78603.19;;;-143.36;nan
39209;BME280;24929;51.982;4.664;2023-01-29T07:35:39;78569.03;;;-143.36;nan
39209;BME280;24929;51.982;4.664;2023-01-29T07:38:06;78663.41;;;-143.36;nan
39209;BME280;24929;51.982;4.664;2023-01-29T07:40:32;78627.25;;;-143.36;nan
39209;BME280;24929;51.982;4.664;2023-01-29T07:43:02;78597.16;;;-143.36;nan
39209;BME280;24929;51.982;4.664;2023-01-29T07:45:29;78579.09;;;-143.36;nan
39209;BME280;24929;51.982;4.664;2023-01-29T07:47:55;78589.13;;;-143.36;nan
39209;BME280;24929;51.982;4.664;2023-01-29T07:50:21;78601.16;;;-143.36;nan
39209;BME280;24929;51.982;4.664;2023-01-29T07:52:47;78619.22;;;-143.36;nan
39209;BME280;24929;51.982;4.664;2023-01-29T07:55:12;78651.34;;;-143.36;nan
39209;BME280;24929;51.982;4.664;2023-01-29T07:57:38;78631.28;;;-143.36;nan
39209;BME280;24929;51.982;4.664;2023-01-29T08:00:03;78615.22;;;-143.36;nan
39209;BME280;24929;51.982;4.664;2023-01-29T08:02:29;78639.31;;;-143.36;nan
39209;BME280;24929;51.982;4.664;2023-01-29T08:04:54;78623.25;;;-143.36;nan
39209;BME280;24929;51.982;4.664;2023-01-29T08:07:20;78623.25;;;-143.36;nan
39209;BME280;24929;51.982;4.664;2023-01-29T08:09:45;78601.16;;;-143.36;nan
39209;BME280;24929;51.982;4.664;2023-01-29T08:12:10;78603.19;;;-143.36;nan
39209;BME280;24929;51.982;4.664;2023-01-29T08:14:36;78607.19;;;-143.36;nan
39209;BME280;24929;51.982;4.664;2023-01-29T08:17:01;78601.16;;;-143.36;nan
39209;BME280;24929;51.982;4.664;2023-01-29T08:19:26;78635.28;;;-143.36;nan
39209;BME280;24929;51.982;4.664;2023-01-29T08:21:52;78629.28;;;-143.36;nan
39209;BME280;24929;51.982;4.664;2023-01-29T08:30:43;78605.19;;;-143.36;nan
39209;BME280;24929;51.982;4.664;2023-01-29T08:33:09;78559.00;;;-143.36;nan
39209;BME280;24929;51.982;4.664;2023-01-29T08:35:35;78561.00;;;-143.36;nan
39209;BME280;24929;51.982;4.664;2023-01-29T08:38:02;78548.97;;;-143.36;nan
39209;BME280;24929;51.982;4.664;2023-01-29T08:40:31;78563.03;;;-143.36;nan
39209;BME280;24929;51.982;4.664;2023-01-29T08:43:04;78474.69;;;-143.36;nan
39209;BME280;24929;51.982;4.664;2023-01-29T08:45:32;78542.94;;;-143.36;nan
39209;BME280;24929;51.982;4.664;2023-01-29T08:47:58;78518.84;;;-143.36;nan
39209;BME280;24929;51.982;4.664;2023-01-29T08:53:45;78508.81;;;-143.36;nan
39209;BME280;24929;51.982;4.664;2023-01-29T08:56:10;78555.00;;;-143.36;nan
39209;BME280;24929;51.982;4.664;2023-01-29T08:58:36;78518.84;;;-143.36;nan
39209;BME280;24929;51.982;4.664;2023-01-29T09:01:09;78500.78;;;-143.36;nan
39209;BME280;24929;51.982;4.664;2023-01-29T09:03:34;78563.03;;;-143.36;nan
39209;BME280;24929;51.982;4.664;2023-01-29T09:06:00;78565.03;;;-143.36;nan
39209;BME280;24929;51.982;4.664;2023-01-29T09:08:26;78557.00;;;-143.36;nan
39209;BME280;24929;51.982;4.664;2023-01-29T09:10:51;78555.00;;;-143.36;nan
39209;BME280;24929;51.982;4.664;2023-01-29T09:13:16;78514.84;;;-143.36;nan
39209;BME280;24929;51.982;4.664;2023-01-29T09:15:41;78542.94;;;-143.36;nan
39209;BME280;24929;51.982;4.664;2023-01-29T09:18:07;78516.84;;;-143.36;nan
39209;BME280;24929;51.982;4.664;2023-01-29T09:20:32;78494.75;;;-143.36;nan
39209;BME280;24929;51.982;4.664;2023-01-29T09:23:03;78561.00;;;-143.36;nan
39209;BME280;24929;51.982;4.664;2023-01-29T09:25:28;78569.03;;;-143.36;nan
39209;BME280;24929;51.982;4.664;2023-01-29T09:27:53;78577.06;;;-143.36;nan
39209;BME280;24929;51.982;4.664;2023-01-29T09:30:19;78609.19;;;-143.36;nan
39209;BME280;24929;51.982;4.664;2023-01-29T09:32:44;78571.06;;;-143.36;nan
39209;BME280;24929;51.982;4.664;2023-01-29T09:35:10;78639.31;;;-143.36;nan
39209;BME280;24929;51.982;4.664;2023-01-29T09:37:35;78617.22;;;-143.36;nan
39209;BME280;24929;51.982;4.664;2023-01-29T09:40:00;78585.09;;;-143.36;nan
39209;BME280;24929;51.982;4.664;2023-01-29T09:42:30;78555.00;;;-143.36;nan
39209;BME280;24929;51.982;4.664;2023-01-29T09:45:11;78490.75;;;-143.36;nan
39209;BME280;24929;51.982;4.664;2023-01-29T09:47:38;78589.13;;;-143.36;nan
39209;BME280;24929;51.982;4.664;2023-01-29T09:50:23;78591.13;;;-143.36;nan
39209;BME280;24929;51.982;4.664;2023-01-29T09:52:58;78575.06;;;-143.36;nan
39209;BME280;24929;51.982;4.664;2023-01-29T09:55:27;78569.03;;;-143.36;nan
39209;BME280;24929;51.982;4.664;2023-01-29T09:57:57;78593.13;;;-143.36;nan
39209;BME280;24929;51.982;4.664;2023-01-29T10:00:29;78488.72;;;-143.36;nan
39209;BME280;24929;51.982;4.664;2023-01-29T10:03:14;78518.84;;;-143.36;nan
39209;BME280;24929;51.982;4.664;2023-01-29T10:09:01;78468.66;;;-143.36;nan
39209;BME280;24929;51.982;4.664;2023-01-29T10:11:47;78496.75;;;-143.36;nan
39209;BME280;24929;51.982;4.664;2023-01-29T10:27:17;78470.66;;;-143.36;nan
39209;BME280;24929;51.982;4.664;2023-01-29T10:29:44;78420.47;;;-143.36;nan
39209;BME280;24929;51.982;4.664;2023-01-29T10:32:15;78434.53;;;-143.36;nan
39209;BME280;24929;51.982;4.664;2023-01-29T10:34:45;78444.56;;;-143.36;nan
39209;BME280;24929;51.982;4.664;2023-01-29T10:37:21;78466.66;;;-143.36;nan
39209;BME280;24929;51.982;4.664;2023-01-29T10:39:49;78548.97;;;-143.36;nan
39209;BME280;24929;51.982;4.664;2023-01-29T10:50:47;78454.59;;;-143.36;nan
39209;BME280;24929;51.982;4.664;2023-01-29T10:53:32;78398.38;;;-143.36;nan
39209;BME280;24929;51.982;4.664;2023-01-29T10:58:48;78386.34;;;-143.36;nan
39209;BME280;24929;51.982;4.664;2023-01-29T11:01:15;78470.66;;;-143.36;nan
39209;BME280;24929;51.982;4.664;2023-01-29T11:03:40;78462.63;;;-143.36;nan
39209;BME280;24929;51.982;4.664;2023-01-29T11:06:19;78412.44;;;-143.36;nan
39209;BME280;24929;51.982;4.664;2023-01-29T11:08:53;78380.31;;;-143.36;nan
39209;BME280;24929;51.982;4.664;2023-01-29T11:11:26;78396.38;;;-143.36;nan
39209;BME280;24929;51.982;4.664;2023-01-29T11:14:14;78398.38;;;-143.36;nan
39209;BME280;24929;51.982;4.664;2023-01-29T11:16:42;78370.28;;;-143.36;nan
39209;BME280;24929;51.982;4.664;2023-01-29T11:19:09;78408.44;;;-143.36;nan
39209;BME280;24929;51.982;4.664;2023-01-29T11:21:56;78342.19;;;-143.36;nan
39209;BME280;24929;51.982;4.664;2023-01-29T11:24:22;78416.47;;;-143.36;nan
39209;BME280;24929;51.982;4.664;2023-01-29T11:26:49;78402.41;;;-143.36;nan
39209;BME280;24929;51.982;4.664;2023-01-29T11:29:40;78332.13;;;-143.36;nan
39209;BME280;24929;51.982;4.664;2023-01-29T11:32:25;78308.03;;;-143.36;nan
39209;BME280;24929;51.982;4.664;2023-01-29T11:37:42;78382.31;;;-143.36;nan
39209;BME280;24929;51.982;4.664;2023-01-29T11:42:43;78388.34;;;-143.36;nan
39209;BME280;24929;51.982;4.664;2023-01-29T11:47:52;78320.09;;;-143.36;nan
39209;BME280;24929;51.982;4.664;2023-01-29T11:50:21;78324.09;;;-143.36;nan
39209;BME280;24929;51.982;4.664;2023-01-29T11:52:48;78402.41;;;-143.36;nan
39209;BME280;24929;51.982;4.664;2023-01-29T11:55:17;78392.38;;;-143.36;nan
39209;BME280;24929;51.982;4.664;2023-01-29T11:57:48;78332.13;;;-143.36;nan
39209;BME280;24929;51.982;4.664;2023-01-29T12:00:26;78330.13;;;-143.36;nan
39209;BME280;24929;51.982;4.664;2023-01-29T12:02:56;78356.22;;;-143.36;nan
39209;BME280;24929;51.982;4.664;2023-01-29T12:05:26;78388.34;;;-143.36;nan
39209;BME280;24929;51.982;4.664;2023-01-29T12:07:54;78360.25;;;-143.36;nan
39209;BME280;24929;51.982;4.664;2023-01-29T12:10:39;78320.09;;;-143.36;nan
39209;BME280;24929;51.982;4.664;2023-01-29T12:15:33;78346.19;;;-143.36;nan
39209;BME280;24929;51.982;4.664;2023-01-29T12:18:30;78318.09;;;-143.36;nan
39209;BME280;24929;51.982;4.664;2023-01-29T12:21:04;78300.00;;;-143.36;nan
39209;BME280;24929;51.982;4.664;2023-01-29T12:29:20;78229.75;;;-143.36;nan
39209;BME280;24929;51.982;4.664;2023-01-29T12:32:13;78213.69;;;-143.36;nan
39209;BME280;24929;51.982;4.664;2023-01-29T12:34:48;78257.84;;;-143.36;nan
39209;BME280;24929;51.982;4.664;2023-01-29T12:37:20;78219.72;;;-143.36;nan
39209;BME280;24929;51.982;4.664;2023-01-29T12:39:48;78221.72;;;-143.36;nan
39209;BME280;24929;51.982;4.664;2023-01-29T12:42:22;78177.56;;;-143.36;nan
39209;BME280;24929;51.982;4.664;2023-01-29T12:44:54;78171.53;;;-143.36;nan
39209;BME280;24929;51.982;4.664;2023-01-29T12:49:56;78109.28;;;-143.36;nan
39209;BME280;24929;51.982;4.664;2023-01-29T12:52:42;78103.28;;;-143.36;nan
39209;BME280;24929;51.982;4.664;2023-01-29T12:57:57;78193.59;;;-143.36;nan
39209;BME280;24929;51.982;4.664;2023-01-29T13:03:16;78161.50;;;-143.36;nan
39209;BME280;24929;51.982;4.664;2023-01-29T13:05:50;78185.59;;;-143.36;nan
39209;BME280;24929;51.982;4.664;2023-01-29T13:08:20;78175.53;;;-143.36;nan
39209;BME280;24929;51.982;4.664;2023-01-29T13:10:50;78179.56;;;-143.36;nan
39209;BME280;24929;51.982;4.664;2023-01-29T13:13:44;78169.53;;;-143.36;nan
39209;BME280;24929;51.982;4.664;2023-01-29T13:16:18;78157.47;;;-143.36;nan
39209;BME280;24929;51.982;4.664;2023-01-29T13:18:55;78117.31;;;-143.36;nan
39209;BME280;24929;51.982;4.664;2023-01-29T13:21:24;78169.53;;;-143.36;nan
39209;BME280;24929;51.982;4.664;2023-01-29T13:23:55;78153.47;;;-143.36;nan
39209;BME280;24929;51.982;4.664;2023-01-29T13:26:22;78095.25;;;-143.36;nan
39209;BME280;24929;51.982;4.664;2023-01-29T13:28:50;78137.41;;;-143.36;nan
39209;BME280;24929;51.982;4.664;2023-01-29T13:31:31;78103.28;;;-143.36;nan
39209;BME280;24929;51.982;4.664;2023-01-29T13:36:48;78079.19;;;-143.36;nan
39209;BME280;24929;51.982;4.664;2023-01-29T13:39:35;78043.03;;;-143.36;nan
39209;BME280;24929;51.982;4.664;2023-01-29T13:42:16;78069.16;;;-143.36;nan
39209;BME280;24929;51.982;4.664;2023-01-29T13:44:50;78055.09;;;-143.36;nan
39209;BME280;24929;51.982;4.664;2023-01-29T13:47:28;78051.06;;;-143.36;nan
39209;BME280;24929;51.982;4.664;2023-01-29T13:52:54;78012.94;;;-143.36;nan
39209;BME280;24929;51.982;4.664;2023-01-29T13:55:39;78039.03;;;-143.36;nan
39209;BME280;24929;51.982;4.664;2023-01-29T14:08:42;78012.94;;;-143.36;nan
39209;BME280;24929;51.982;4.664;2023-01-29T14:13:47;78083.19;;;-143.36;nan
39209;BME280;24929;51.982;4.664;2023-01-29T14:18:46;78051.06;;;-143.36;nan
39209;BME280;24929;51.982;4.664;2023-01-29T14:23:43;78022.97;;;-143.36;nan
39209;BME280;24929;51.982;4.664;2023-01-29T14:36:53;78087.22;;;-143.36;nan
39209;BME280;24929;51.982;4.664;2023-01-29T14:39:29;78055.09;;;-143.36;nan
39209;BME280;24929;51.982;4.664;2023-01-29T14:41:56;78121.34;;;-143.36;nan
39209;BME280;24929;51.982;4.664;2023-01-29T14:47:20;78065.13;;;-143.36;nan
39209;BME280;24929;51.982;4.664;2023-01-29T14:52:43;78115.31;;;-143.36;nan
39209;BME280;24929;51.982;4.664;2023-01-29T14:55:24;78047.06;;;-143.36;nan
39209;BME280;24929;51.982;4.664;2023-01-29T14:57:51;78089.22;;;-143.36;nan
39209;BME280;24929;51.982;4.664;2023-01-29T15:00:27;77996.88;;;-143.36;nan
39209;BME280;24929;51.982;4.664;2023-01-29T15:02:55;78063.13;;;-143.36;nan
39209;BME280;24929;51.982;4.664;2023-01-29T15:05:26;78051.06;;;-143.36;nan
39209;BME280;24929;51.982;4.664;2023-01-29T15:08:07;78053.09;;;-143.36;nan
39209;BME280;24929;51.982;4.664;2023-01-29T15:10:48;78125.34;;;-143.36;nan
39209;BME280;24929;51.982;4.664;2023-01-29T15:13:43;78047.06;;;-143.36;nan
39209;BME280;24929;51.982;4.664;2023-01-29T15:16:15;78083.19;;;-143.36;nan
39209;BME280;24929;51.982;4.664;2023-01-29T15:18:42;78117.31;;;-143.36;nan
39209;BME280;24929;51.982;4.664;2023-01-29T15:24:29;78137.41;;;-143.36;nan
39209;BME280;24929;51.982;4.664;2023-01-29T15:26:55;78121.34;;;-143.36;nan
39209;BME280;24929;51.982;4.664;2023-01-29T15:29:23;78119.34;;;-143.36;nan
39209;BME280;24929;51.982;4.664;2023-01-29T15:31:50;78153.47;;;-143.36;nan
39209;BME280;24929;51.982;4.664;2023-01-29T15:34:15;78139.41;;;-143.36;nan
39209;BME280;24929;51.982;4.664;2023-01-29T15:36:41;78153.47;;;-143.36;nan
39209;BME280;24929;51.982;4.664;2023-01-29T15:39:21;78073.16;;;-143.36;nan
39209;BME280;24929;51.982;4.664;2023-01-29T15:41:48;78127.38;;;-143.36;nan
39209;BME280;24929;51.982;4.664;2023-01-29T15:44:18;78167.50;;;-143.36;nan
39209;BME280;24929;51.982;4.664;2023-01-29T15:46:55;78111.31;;;-143.36;nan
39209;BME280;24929;51.982;4.664;2023-01-29T15:49:33;78143.41;;;-143.36;nan